Time;durP1;ratioP1;P1;durP2;ratioP2;P2;SDS_P1;SDS_P2;PMS_P1;PMS_P2;Temp;Humidity;BMP_temperature;BMP_pressure;BME280_temperature;BME280_humidity;BME280_pressure;Samples;Min_cycle;Max_cycle;Signal;HPM_P1;HPM_P2
2022/05/10 00:01:52;;;;;;;3.20;0.52;;;23.90;55.50;;;;;;5084031;28;20035;-39
2022/05/10 00:04:18;;;;;;;1.77;0.52;;;23.90;55.90;;;;;;5090216;28;20074;-38
2022/05/10 00:06:46;;;;;;;2.50;0.50;;;23.90;55.90;;;;;;5087901;28;20032;-39
2022/05/10 00:09:13;;;;;;;2.92;0.73;;;23.80;56.00;;;;;;5085908;28;20037;-38
2022/05/10 00:11:39;;;;;;;1.88;0.63;;;23.80;56.00;;;;;;5085624;28;20097;-39
2022/05/10 00:14:05;;;;;;;3.88;0.80;;;23.90;56.10;;;;;;5081619;28;20055;-38
2022/05/10 00:16:33;;;;;;;4.45;1.42;;;23.90;56.10;;;;;;5086454;28;20108;-38
2022/05/10 00:18:59;;;;;;;4.03;0.85;;;23.90;56.70;;;;;;5093332;28;20032;-39
2022/05/10 00:21:25;;;;;;;3.95;0.90;;;23.80;56.00;;;;;;5086990;28;20031;-39
2022/05/10 00:23:52;;;;;;;2.90;1.10;;;23.80;56.00;;;;;;5087014;28;20028;-39
2022/05/10 00:26:18;;;;;;;3.28;1.10;;;23.80;56.00;;;;;;5084958;28;20024;-39
2022/05/10 00:28:44;;;;;;;3.33;1.33;;;23.80;55.90;;;;;;5088415;28;20071;-42
2022/05/10 00:31:10;;;;;;;3.83;1.00;;;23.80;55.90;;;;;;5084176;28;20037;-39
2022/05/10 00:33:37;;;;;;;2.45;1.30;;;23.80;55.90;;;;;;5089287;28;20036;-39
2022/05/10 00:36:04;;;;;;;6.35;1.70;;;23.80;55.90;;;;;;5080971;28;20020;-39
2022/05/10 00:38:37;;;;;;;3.30;1.20;;;23.80;56.00;;;;;;5077953;28;20043;-39
2022/05/10 00:41:32;;;;;;;3.55;1.30;;;23.80;55.90;;;;;;5081051;28;20524;-41
2022/05/10 00:44:09;;;;;;;4.53;1.17;;;23.80;55.90;;;;;;5069500;28;20086;-40
2022/05/10 00:46:44;;;;;;;3.97;1.30;;;23.80;55.90;;;;;;5078880;28;20025;-39
2022/05/10 00:49:26;;;;;;;5.03;1.40;;;23.80;55.90;;;;;;5080478;28;20044;-39
2022/05/10 00:52:04;;;;;;;3.53;1.20;;;23.70;55.80;;;;;;5063714;28;20065;-40
2022/05/10 00:54:31;;;;;;;;;;;23.70;55.70;;;;;;5095872;28;20029;-39
2022/05/10 00:57:12;;;;;;;5.20;1.20;;;23.70;55.80;;;;;;5079468;28;19916;-39
2022/05/10 01:00:06;;;;;;;4.13;1.38;;;23.70;55.80;;;;;;5076048;28;20055;-39
2022/05/10 01:02:45;;;;;;;5.13;1.67;;;23.70;55.80;;;;;;5081476;28;20674;-39
2022/05/10 01:05:36;;;;;;;2.40;1.17;;;23.70;55.70;;;;;;5073974;28;20028;-39
2022/05/10 01:08:24;;;;;;;4.63;1.50;;;23.70;55.60;;;;;;5080952;28;20055;-40
2022/05/10 01:11:00;;;;;;;3.97;1.47;;;23.70;55.70;;;;;;5078504;28;20064;-39
2022/05/10 01:13:43;;;;;;;4.85;1.90;;;23.70;55.70;;;;;;5085990;28;20515;-39
2022/05/10 01:16:19;;;;;;;5.10;1.63;;;23.70;55.60;;;;;;5073311;28;20031;-40
2022/05/10 01:18:46;;;;;;;3.85;1.50;;;23.70;55.60;;;;;;5065352;28;20108;-39
2022/05/10 01:21:25;;;;;;;3.92;1.38;;;23.60;55.60;;;;;;5070351;28;20036;-39
2022/05/10 01:24:00;;;;;;;4.60;1.52;;;23.60;55.60;;;;;;5078348;28;20037;-39
2022/05/10 01:26:39;;;;;;;4.28;1.40;;;23.60;55.60;;;;;;5076424;28;20036;-39
2022/05/10 01:29:07;;;;;;;6.10;1.88;;;23.60;55.60;;;;;;5091336;28;20067;-39
2022/05/10 01:31:43;;;;;;;3.45;1.40;;;23.60;55.60;;;;;;5066263;28;20029;-40
2022/05/10 01:34:17;;;;;;;6.85;1.75;;;23.60;55.50;;;;;;5071200;28;20084;-39
2022/05/10 01:36:58;;;;;;;5.43;1.80;;;23.60;55.60;;;;;;5076824;28;20041;-39
2022/05/10 01:39:30;;;;;;;7.68;1.65;;;23.60;55.70;;;;;;5104473;28;20036;-39
2022/05/10 01:42:02;;;;;;;6.30;2.42;;;23.60;55.70;;;;;;5060848;28;20033;-42
2022/05/10 01:44:49;;;;;;;5.18;1.73;;;23.60;55.80;;;;;;5076919;28;20025;-54
2022/05/10 01:47:31;;;;;;;4.25;1.60;;;23.60;56.00;;;;;;5081351;28;20031;-45
2022/05/10 01:50:08;;;;;;;4.18;1.48;;;23.60;56.00;;;;;;5068617;28;20052;-44
2022/05/10 01:52:45;;;;;;;3.22;1.02;;;23.50;56.00;;;;;;5085888;28;20211;-44
2022/05/10 01:55:43;;;;;;;1.33;0.73;;;23.50;55.80;;;;;;5059743;28;20052;-44
2022/05/10 01:58:14;;;;;;;2.47;0.75;;;23.50;55.60;;;;;;5065022;28;20068;-44
2022/05/10 02:00:42;;;;;;;1.23;0.55;;;23.50;55.60;;;;;;5084630;28;20044;-44
2022/05/10 02:03:19;;;;;;;2.25;0.70;;;23.50;55.60;;;;;;5061246;28;20056;-44
2022/05/10 02:05:51;;;;;;;;;;;23.40;55.50;;;;;;5068471;28;20097;-44
2022/05/10 02:08:32;;;;;;;2.95;0.75;;;23.40;55.40;;;;;;5067612;28;19925;-45
2022/05/10 02:11:00;;;;;;;1.60;0.93;;;23.40;55.50;;;;;;5060186;28;20423;-43
2022/05/10 02:13:33;;;;;;;3.10;0.80;;;23.40;55.50;;;;;;5070807;28;20074;-44
2022/05/10 02:16:02;;;;;;;2.08;0.82;;;23.30;55.50;;;;;;5080391;28;20709;-47
2022/05/10 02:18:51;;;;;;;4.25;1.33;;;23.30;55.50;;;;;;5072112;28;20028;-50
2022/05/10 02:21:21;;;;;;;4.05;1.40;;;23.30;56.50;;;;;;5065570;28;20747;-51
2022/05/10 02:23:51;;;;;;;2.85;1.13;;;23.30;56.90;;;;;;5075289;28;20062;-50
2022/05/10 02:26:28;;;;;;;5.20;1.15;;;23.30;57.30;;;;;;5077788;28;20040;-52
2022/05/10 02:29:26;;;;;;;2.55;1.10;;;23.30;57.60;;;;;;5073604;28;20041;-50
2022/05/10 02:34:59;;;;;;;4.00;1.15;;;23.30;57.80;;;;;;5084365;28;20064;-51
2022/05/10 02:37:25;;;;;;;3.22;1.40;;;23.30;58.00;;;;;;5083033;28;20025;-53
2022/05/10 02:39:51;;;;;;;2.03;1.00;;;23.30;58.20;;;;;;5084553;28;20037;-52
2022/05/10 02:42:19;;;;;;;4.75;1.10;;;23.30;58.30;;;;;;5087982;28;20035;-50
2022/05/10 02:44:45;;;;;;;;;;;23.30;58.30;;;;;;5076747;28;20094;-49
2022/05/10 02:47:11;;;;;;;3.80;1.00;;;23.20;58.30;;;;;;5081647;28;19916;-52
2022/05/10 02:49:38;;;;;;;2.55;1.00;;;23.30;58.40;;;;;;5080452;28;20113;-53
2022/05/10 02:52:04;;;;;;;2.03;0.90;;;23.20;58.30;;;;;;5089756;28;20032;-48
2022/05/10 02:54:30;;;;;;;1.98;1.00;;;23.20;58.30;;;;;;5070563;28;20035;-59
2022/05/10 02:56:57;;;;;;;1.65;0.80;;;23.20;58.30;;;;;;5081611;28;20066;-48
2022/05/10 02:59:25;;;;;;;1.83;0.88;;;23.20;58.40;;;;;;5086639;28;20106;-47
2022/05/10 03:02:06;;;;;;;2.03;1.02;;;23.20;58.40;;;;;;5084136;28;20056;-50
2022/05/10 03:04:37;;;;;;;2.53;1.00;;;23.20;58.40;;;;;;5083617;28;20054;-49
2022/05/10 03:07:04;;;;;;;1.52;0.90;;;23.20;58.40;;;;;;5086606;28;20028;-49
2022/05/10 03:09:31;;;;;;;2.97;1.00;;;23.20;58.40;;;;;;5079761;28;20039;-48
2022/05/10 03:11:57;;;;;;;1.67;1.03;;;23.20;58.40;;;;;;5083663;28;20094;-49
2022/05/10 03:14:24;;;;;;;2.80;1.13;;;23.20;58.40;;;;;;5091414;28;20288;-53
2022/05/10 03:17:10;;;;;;;3.83;0.90;;;23.20;58.50;;;;;;5088105;28;20024;-48
